createdAt,value
2023-02-06T00:00:38.689Z,0.40
2023-02-06T00:03:05.819Z,0.40
2023-02-06T00:05:33.149Z,0.40
2023-02-06T00:08:00.138Z,0.40
2023-02-06T00:10:27.278Z,0.40
2023-02-06T00:12:54.269Z,0.40
2023-02-06T00:15:21.604Z,0.40
2023-02-06T00:17:48.415Z,0.40
2023-02-06T00:20:15.228Z,0.40
2023-02-06T00:22:42.224Z,0.40
2023-02-06T00:25:09.184Z,0.40
2023-02-06T00:27:36.429Z,0.40
2023-02-06T00:30:04.948Z,0.30
2023-02-06T00:32:31.889Z,0.40
2023-02-06T00:34:58.706Z,0.40
2023-02-06T00:37:25.473Z,0.30
2023-02-06T00:39:52.201Z,0.30
2023-02-06T00:42:18.939Z,0.30
2023-02-06T00:44:45.691Z,0.40
2023-02-06T00:47:12.448Z,0.40
2023-02-06T00:49:39.168Z,0.30
2023-02-06T00:52:05.927Z,0.40
2023-02-06T00:54:32.706Z,0.30
2023-02-06T00:56:59.464Z,0.30
2023-02-06T00:59:26.357Z,0.30
2023-02-06T01:01:53.100Z,0.20
2023-02-06T01:04:20.039Z,0.30
2023-02-06T01:06:46.855Z,0.30
2023-02-06T01:09:13.581Z,0.30
2023-02-06T01:11:40.355Z,0.20
2023-02-06T01:14:07.146Z,0.20
2023-02-06T01:16:33.879Z,0.20
2023-02-06T01:19:00.684Z,0.20
2023-02-06T01:21:27.947Z,0.20
2023-02-06T01:23:55.214Z,0.20
2023-02-06T01:26:25.680Z,0.30
2023-02-06T01:28:53.053Z,0.30
2023-02-06T01:31:26.639Z,0.30
2023-02-06T01:33:54.880Z,0.30
2023-02-06T01:36:22.601Z,0.30
2023-02-06T01:38:49.691Z,0.30
2023-02-06T01:41:18.275Z,0.30
2023-02-06T01:44:12.858Z,0.30
2023-02-06T01:46:41.439Z,0.20
2023-02-06T01:49:13.590Z,0.20
2023-02-06T01:51:41.001Z,0.20
2023-02-06T01:54:09.554Z,0.20
2023-02-06T01:56:51.146Z,0.20
2023-02-06T01:59:18.144Z,0.20
2023-02-06T02:01:45.425Z,0.20
2023-02-06T02:04:17.562Z,0.10
2023-02-06T02:06:47.578Z,0.10
2023-02-06T02:09:14.454Z,0.10
2023-02-06T02:11:43.106Z,0.10
2023-02-06T02:14:12.891Z,0.10
2023-02-06T02:17:08.678Z,0.00
2023-02-06T02:20:08.683Z,0.00
2023-02-06T02:22:50.127Z,0.10
2023-02-06T02:25:54.180Z,0.10
2023-02-06T02:28:43.790Z,0.10
2023-02-06T02:31:59.871Z,0.10
2023-02-06T02:34:57.000Z,0.10
2023-02-06T02:37:29.717Z,0.00
2023-02-06T02:40:18.710Z,0.10
2023-02-06T02:42:57.313Z,0.10
2023-02-06T02:45:43.333Z,0.00
2023-02-06T02:48:20.814Z,0.00
2023-02-06T02:50:47.947Z,0.00
2023-02-06T02:53:14.997Z,-0.10
2023-02-06T02:55:42.305Z,-0.10
2023-02-06T02:58:26.602Z,0.00
2023-02-06T03:01:04.546Z,-0.10
2023-02-06T03:03:33.169Z,-0.10
2023-02-06T03:06:37.309Z,0.00
2023-02-06T03:09:22.357Z,-0.10
2023-02-06T03:12:08.563Z,-0.10
2023-02-06T03:14:46.238Z,-0.10
2023-02-06T03:17:19.524Z,0.00
2023-02-06T03:19:52.387Z,0.00
2023-02-06T03:22:21.378Z,0.00
2023-02-06T03:24:50.767Z,0.00
2023-02-06T03:27:19.002Z,0.00
2023-02-06T03:29:49.366Z,0.00
2023-02-06T03:32:18.841Z,0.00
2023-02-06T03:34:48.272Z,-0.10
2023-02-06T03:37:16.305Z,-0.10
2023-02-06T03:39:43.770Z,-0.10
2023-02-06T03:42:12.155Z,-0.10
2023-02-06T03:44:41.964Z,-0.10
2023-02-06T03:47:11.593Z,-0.10
2023-02-06T03:49:40.772Z,-0.10
2023-02-06T03:52:11.024Z,-0.10
2023-02-06T03:54:42.721Z,-0.20
2023-02-06T03:57:12.915Z,-0.20
2023-02-06T03:59:39.960Z,-0.20
2023-02-06T04:02:07.193Z,-0.10
2023-02-06T04:04:41.905Z,-0.20
2023-02-06T04:07:29.951Z,-0.20
2023-02-06T04:09:56.937Z,-0.20
2023-02-06T04:12:24.539Z,-0.20
2023-02-06T04:14:51.722Z,-0.20
2023-02-06T04:17:38.556Z,-0.20
2023-02-06T04:20:06.850Z,-0.20
2023-02-06T04:22:33.666Z,-0.20
2023-02-06T04:25:00.443Z,-0.30
2023-02-06T04:27:27.541Z,-0.30
2023-02-06T04:29:54.358Z,-0.30
2023-02-06T04:32:21.272Z,-0.30
2023-02-06T04:34:48.067Z,-0.30
2023-02-06T04:37:14.823Z,-0.40
2023-02-06T04:39:41.960Z,-0.40
2023-02-06T04:42:08.819Z,-0.40
2023-02-06T04:44:35.827Z,-0.40
2023-02-06T04:47:03.353Z,-0.50
2023-02-06T04:49:30.196Z,-0.50
2023-02-06T04:51:57.184Z,-0.60
2023-02-06T04:54:23.983Z,-0.60
2023-02-06T04:56:50.775Z,-0.70
2023-02-06T04:59:17.635Z,-0.70
2023-02-06T05:01:44.482Z,-0.70
2023-02-06T05:04:11.276Z,-0.70
2023-02-06T05:06:38.078Z,-0.70
2023-02-06T05:09:05.590Z,-0.80
2023-02-06T05:11:32.415Z,-0.70
2023-02-06T05:14:02.084Z,-0.70
2023-02-06T05:16:29.046Z,-0.80
2023-02-06T05:18:57.181Z,-0.90
2023-02-06T05:21:24.953Z,-0.90
2023-02-06T05:23:51.852Z,-0.90
2023-02-06T05:26:20.378Z,-0.90
2023-02-06T05:28:47.443Z,-0.80
2023-02-06T05:31:20.068Z,-0.80
2023-02-06T05:33:52.565Z,-0.80
2023-02-06T05:36:20.728Z,-0.80
2023-02-06T05:38:48.514Z,-0.90
2023-02-06T05:41:15.987Z,-0.90
2023-02-06T05:43:42.946Z,-0.90
2023-02-06T05:46:09.762Z,-0.80
2023-02-06T05:48:36.690Z,-0.80
2023-02-06T05:51:03.745Z,-0.80
2023-02-06T05:53:30.945Z,-0.80
2023-02-06T05:55:58.077Z,-0.80
2023-02-06T05:58:24.887Z,-0.90
2023-02-06T06:00:51.746Z,-0.80
2023-02-06T06:03:19.908Z,-0.80
2023-02-06T06:05:46.924Z,-0.80
2023-02-06T06:08:13.756Z,-0.80
2023-02-06T06:10:40.630Z,-0.80
2023-02-06T06:13:08.430Z,-0.80
2023-02-06T06:15:35.384Z,-0.80
2023-02-06T06:18:02.636Z,-0.80
2023-02-06T06:20:29.588Z,-0.90
2023-02-06T06:22:56.324Z,-0.90
2023-02-06T06:25:23.140Z,-0.90
2023-02-06T06:27:49.965Z,-0.90
2023-02-06T06:30:17.044Z,-0.80
2023-02-06T06:32:43.783Z,-0.80
2023-02-06T06:35:10.719Z,-0.70
2023-02-06T06:37:37.523Z,-0.70
2023-02-06T06:40:04.606Z,-0.70
2023-02-06T06:42:31.383Z,-0.70
2023-02-06T06:44:58.745Z,-0.70
2023-02-06T06:47:25.861Z,-0.70
2023-02-06T06:49:52.666Z,-0.60
2023-02-06T06:52:25.076Z,-0.60
2023-02-06T06:54:53.187Z,-0.60
2023-02-06T06:57:21.593Z,-0.60
2023-02-06T06:59:48.754Z,-0.60
2023-02-06T07:02:16.112Z,-0.50
2023-02-06T07:04:43.337Z,-0.50
2023-02-06T07:07:10.176Z,-0.50
2023-02-06T07:09:37.032Z,-0.50
2023-02-06T07:12:04.086Z,-0.50
2023-02-06T07:14:30.930Z,-0.50
2023-02-06T07:16:59.240Z,-0.50
2023-02-06T07:19:26.088Z,-0.50
2023-02-06T07:21:52.870Z,-0.50
2023-02-06T07:24:19.730Z,-0.50
2023-02-06T07:26:46.507Z,-0.50
2023-02-06T07:29:13.315Z,-0.40
2023-02-06T07:31:40.120Z,-0.30
2023-02-06T07:34:06.923Z,-0.30
2023-02-06T07:36:33.850Z,-0.30
2023-02-06T07:39:02.694Z,-0.30
2023-02-06T07:41:29.476Z,-0.30
2023-02-06T07:43:56.247Z,-0.30
2023-02-06T07:46:23.237Z,-0.30
2023-02-06T07:48:50.096Z,-0.20
2023-02-06T07:51:16.981Z,-0.10
2023-02-06T07:53:43.769Z,-0.20
2023-02-06T07:56:15.635Z,-0.30
2023-02-06T07:58:42.851Z,-0.30
2023-02-06T08:01:10.081Z,-0.30
2023-02-06T08:03:37.151Z,-0.20
2023-02-06T08:06:14.961Z,-0.20
2023-02-06T08:08:42.617Z,-0.30
2023-02-06T08:11:19.283Z,-0.30
2023-02-06T08:13:47.339Z,-0.20
2023-02-06T08:16:17.342Z,-0.10
2023-02-06T08:18:44.508Z,-0.30
2023-02-06T08:21:14.658Z,-0.20
2023-02-06T08:23:42.379Z,-0.20
2023-02-06T08:26:18.339Z,-0.20
2023-02-06T08:28:47.576Z,0.00
2023-02-06T08:31:31.157Z,0.10
2023-02-06T08:33:58.068Z,0.20
2023-02-06T08:36:25.779Z,0.30
2023-02-06T08:38:53.168Z,0.30
2023-02-06T08:41:25.633Z,0.30
2023-02-06T08:43:55.752Z,0.40
2023-02-06T08:46:24.457Z,0.40
2023-02-06T08:49:04.837Z,0.50
2023-02-06T08:51:33.508Z,0.50
2023-02-06T08:54:03.053Z,0.60
2023-02-06T08:56:31.346Z,0.50
2023-02-06T08:59:02.248Z,0.50
2023-02-06T09:01:31.504Z,0.60
2023-02-06T09:04:00.786Z,0.70
2023-02-06T09:06:28.498Z,0.70
2023-02-06T09:08:57.006Z,0.70
2023-02-06T09:11:25.787Z,0.80
2023-02-06T09:13:55.995Z,0.80
2023-02-06T09:16:23.504Z,0.70
2023-02-06T09:18:53.866Z,0.70
2023-02-06T09:21:23.691Z,0.70
2023-02-06T09:23:53.513Z,0.80
2023-02-06T09:26:23.916Z,0.70
2023-02-06T09:28:55.214Z,0.80
2023-02-06T09:31:22.132Z,0.90
2023-02-06T09:33:49.395Z,0.90
2023-02-06T09:36:19.115Z,0.90
2023-02-06T09:38:49.070Z,1.00
2023-02-06T09:41:18.723Z,1.00
2023-02-06T09:43:51.801Z,1.00
2023-02-06T09:46:23.389Z,1.10
2023-02-06T09:48:51.315Z,1.10
2023-02-06T09:51:25.759Z,1.10
2023-02-06T09:54:05.906Z,1.10
2023-02-06T09:56:57.527Z,1.10
2023-02-06T09:59:43.406Z,1.20
2023-02-06T10:02:28.104Z,1.20
2023-02-06T10:05:15.843Z,1.20
2023-02-06T10:08:03.969Z,1.20
2023-02-06T10:10:40.820Z,1.30
2023-02-06T10:13:23.054Z,1.30
2023-02-06T10:15:55.118Z,1.30
2023-02-06T10:18:39.526Z,1.30
2023-02-06T10:21:26.881Z,1.40
2023-02-06T10:24:09.835Z,1.40
2023-02-06T10:26:39.718Z,1.40
2023-02-06T10:29:16.885Z,1.50
2023-02-06T10:32:02.725Z,1.50
2023-02-06T10:34:35.719Z,1.60
2023-02-06T10:37:14.923Z,1.50
2023-02-06T10:39:54.058Z,1.60
2023-02-06T10:42:45.629Z,1.60
2023-02-06T10:45:39.063Z,1.70
2023-02-06T10:48:34.119Z,1.70
2023-02-06T10:51:15.993Z,1.70
2023-02-06T10:53:56.185Z,1.70
2023-02-06T10:56:27.324Z,1.80
2023-02-06T10:58:59.935Z,1.70
2023-02-06T11:01:30.816Z,1.70
2023-02-06T11:04:15.026Z,1.70
2023-02-06T11:06:43.027Z,1.70
2023-02-06T11:09:10.649Z,1.80
2023-02-06T11:11:41.628Z,1.80
2023-02-06T11:14:30.255Z,1.80
2023-02-06T11:17:00.132Z,1.90
2023-02-06T11:19:33.639Z,1.90
2023-02-06T11:22:14.936Z,2.00
2023-02-06T11:25:03.793Z,2.00
2023-02-06T11:27:33.472Z,2.10
2023-02-06T11:30:23.641Z,2.20
2023-02-06T11:33:04.285Z,2.10
2023-02-06T11:35:37.609Z,2.10
2023-02-06T11:38:27.572Z,2.10
2023-02-06T11:41:07.026Z,2.10
2023-02-06T11:43:52.078Z,2.20
2023-02-06T11:46:30.980Z,2.30
2023-02-06T11:49:00.552Z,2.40
2023-02-06T11:51:47.149Z,2.40
2023-02-06T11:54:29.227Z,2.50
2023-02-06T11:57:23.201Z,2.50
2023-02-06T11:59:53.784Z,2.60
2023-02-06T12:02:28.541Z,2.60
2023-02-06T12:05:13.667Z,2.60
2023-02-06T12:07:45.378Z,2.60
2023-02-06T12:10:17.277Z,2.70
2023-02-06T12:13:08.732Z,2.70
2023-02-06T12:15:53.336Z,2.70
2023-02-06T12:18:34.876Z,2.80
2023-02-06T12:21:20.626Z,2.90
2023-02-06T12:23:55.995Z,2.90
2023-02-06T12:26:27.632Z,2.90
2023-02-06T12:29:15.232Z,2.90
2023-02-06T12:32:06.434Z,2.90
2023-02-06T12:34:54.043Z,2.90
2023-02-06T12:37:32.168Z,2.90
2023-02-06T12:40:00.162Z,2.90
2023-02-06T12:42:38.359Z,2.90
2023-02-06T12:45:39.696Z,3.00
2023-02-06T12:48:23.816Z,3.00
2023-02-06T12:51:30.010Z,2.90
2023-02-06T12:54:00.453Z,3.00
2023-02-06T12:56:42.532Z,3.10
2023-02-06T12:59:09.273Z,3.10
2023-02-06T13:01:58.156Z,3.10
2023-02-06T13:04:28.144Z,3.20
2023-02-06T13:06:59.252Z,3.20
2023-02-06T13:09:36.847Z,3.30
2023-02-06T13:12:25.235Z,3.40
2023-02-06T13:14:56.953Z,3.40
2023-02-06T13:17:38.138Z,3.40
2023-02-06T13:20:13.410Z,3.40
2023-02-06T13:22:43.085Z,3.50
2023-02-06T13:25:28.607Z,3.50
2023-02-06T13:27:56.999Z,3.60
2023-02-06T13:30:30.321Z,3.60
2023-02-06T13:33:19.629Z,3.60
2023-02-06T13:36:09.873Z,3.60
2023-02-06T13:38:38.816Z,3.60
2023-02-06T13:41:14.603Z,3.60
2023-02-06T13:44:11.570Z,3.60
2023-02-06T13:46:47.786Z,3.60
2023-02-06T13:49:52.309Z,3.60
2023-02-06T13:52:39.002Z,3.60
2023-02-06T13:55:20.902Z,3.60
2023-02-06T13:58:12.427Z,3.60
2023-02-06T14:00:43.453Z,3.60
2023-02-06T14:03:21.898Z,3.50
2023-02-06T14:06:08.207Z,3.60
2023-02-06T14:09:07.175Z,3.70
2023-02-06T14:12:03.261Z,3.60
2023-02-06T14:14:55.903Z,3.70
2023-02-06T14:17:50.022Z,3.70
2023-02-06T14:20:21.097Z,3.70
2023-02-06T14:23:12.536Z,3.60
2023-02-06T14:26:03.476Z,3.60
2023-02-06T14:28:57.621Z,3.60
2023-02-06T14:31:46.604Z,3.60
2023-02-06T14:34:28.416Z,3.60
2023-02-06T14:37:24.240Z,3.60
2023-02-06T14:39:52.668Z,3.60
2023-02-06T14:42:37.394Z,3.60
2023-02-06T14:45:33.838Z,3.60
2023-02-06T14:48:07.074Z,3.50
2023-02-06T14:50:37.778Z,3.50
2023-02-06T14:53:16.836Z,3.50
2023-02-06T14:55:47.066Z,3.50
2023-02-06T14:58:32.131Z,3.50
2023-02-06T15:01:20.587Z,3.30
2023-02-06T15:03:49.816Z,3.20
2023-02-06T15:06:28.643Z,3.20
2023-02-06T15:08:55.946Z,3.20
2023-02-06T15:11:32.376Z,3.20
2023-02-06T15:14:02.702Z,3.20
2023-02-06T15:16:30.613Z,3.30
2023-02-06T15:19:21.476Z,3.20
2023-02-06T15:21:50.044Z,3.20
2023-02-06T15:24:34.937Z,3.20
2023-02-06T15:27:30.202Z,3.20
2023-02-06T15:29:58.001Z,3.20
2023-02-06T15:32:37.939Z,3.20
2023-02-06T15:35:22.689Z,3.20
2023-02-06T15:37:49.835Z,3.10
2023-02-06T15:40:39.122Z,3.00
2023-02-06T15:43:06.483Z,3.00
2023-02-06T15:45:37.312Z,3.00
2023-02-06T15:48:27.731Z,3.00
2023-02-06T15:50:58.972Z,3.00
2023-02-06T15:53:35.651Z,2.90
2023-02-06T15:56:05.647Z,2.90
2023-02-06T15:58:33.666Z,2.80
2023-02-06T16:01:02.070Z,2.80
2023-02-06T16:03:30.250Z,2.80
2023-02-06T16:05:57.811Z,2.80
2023-02-06T16:08:30.192Z,2.80
2023-02-06T16:11:04.108Z,2.70
2023-02-06T16:13:33.345Z,2.70
2023-02-06T16:16:08.460Z,2.70
2023-02-06T16:18:40.298Z,2.70
2023-02-06T16:21:16.420Z,2.70
2023-02-06T16:24:03.393Z,2.60
2023-02-06T16:26:43.058Z,2.60
2023-02-06T16:29:09.783Z,2.60
2023-02-06T16:31:42.898Z,2.60
2023-02-06T16:34:28.333Z,2.60
2023-02-06T16:36:55.159Z,2.50
2023-02-06T16:39:23.602Z,2.50
2023-02-06T16:41:52.895Z,2.50
2023-02-06T16:44:20.514Z,2.50
2023-02-06T16:46:47.344Z,2.50
2023-02-06T16:49:18.031Z,2.50
2023-02-06T16:51:46.084Z,2.50
2023-02-06T16:54:20.711Z,2.40
2023-02-06T16:56:47.877Z,2.40
2023-02-06T16:59:14.755Z,2.40
2023-02-06T17:01:41.798Z,2.40
2023-02-06T17:04:08.626Z,2.30
2023-02-06T17:06:36.117Z,2.40
2023-02-06T17:09:08.965Z,2.30
2023-02-06T17:11:36.827Z,2.30
2023-02-06T17:14:04.476Z,2.30
2023-02-06T17:16:32.084Z,2.30
2023-02-06T17:18:58.962Z,2.20
2023-02-06T17:21:28.771Z,2.30
2023-02-06T17:23:55.620Z,2.20
2023-02-06T17:26:23.692Z,2.20
2023-02-06T17:28:51.753Z,2.20
2023-02-06T17:31:19.600Z,2.10
2023-02-06T17:33:46.417Z,2.10
2023-02-06T17:36:26.892Z,2.10
2023-02-06T17:38:53.681Z,2.10
2023-02-06T17:41:20.413Z,2.10
2023-02-06T17:43:47.213Z,2.10
2023-02-06T17:46:14.193Z,2.00
2023-02-06T17:48:43.261Z,2.00
2023-02-06T17:51:11.202Z,2.00
2023-02-06T17:53:38.360Z,2.00
2023-02-06T17:56:12.702Z,2.00
2023-02-06T17:58:43.500Z,2.00
2023-02-06T18:01:12.298Z,2.00
2023-02-06T18:03:39.453Z,2.00
2023-02-06T18:06:06.518Z,1.90
2023-02-06T18:08:33.335Z,1.90
2023-02-06T18:11:00.498Z,1.80
2023-02-06T18:13:28.537Z,1.70
2023-02-06T18:15:57.246Z,1.70
2023-02-06T18:18:26.067Z,1.80
2023-02-06T18:20:52.806Z,1.80
2023-02-06T18:23:19.710Z,1.80
2023-02-06T18:25:46.515Z,1.60
2023-02-06T18:28:14.818Z,1.60
2023-02-06T18:30:42.372Z,1.60
2023-02-06T18:33:11.338Z,1.60
2023-02-06T18:35:44.974Z,1.70
2023-02-06T18:38:15.399Z,1.70
2023-02-06T18:40:45.610Z,1.60
2023-02-06T18:43:14.257Z,1.60
2023-02-06T18:45:42.728Z,1.60
2023-02-06T18:48:13.139Z,1.60
2023-02-06T18:50:42.498Z,1.60
2023-02-06T18:53:09.636Z,1.60
2023-02-06T18:55:37.380Z,1.60
2023-02-06T18:58:07.303Z,1.60
2023-02-06T19:00:35.891Z,1.50
2023-02-06T19:03:03.476Z,1.50
2023-02-06T19:05:34.624Z,1.50
2023-02-06T19:08:01.427Z,1.40
2023-02-06T19:10:29.280Z,1.40
2023-02-06T19:12:56.096Z,1.40
2023-02-06T19:15:22.860Z,1.30
2023-02-06T19:17:50.228Z,1.20
2023-02-06T19:20:17.166Z,1.20
2023-02-06T19:22:44.052Z,1.20
2023-02-06T19:25:14.250Z,1.20
2023-02-06T19:27:41.622Z,1.20
2023-02-06T19:30:09.456Z,1.30
2023-02-06T19:32:36.679Z,1.30
2023-02-06T19:35:04.414Z,1.30
2023-02-06T19:37:31.547Z,1.40
2023-02-06T19:39:58.364Z,1.30
2023-02-06T19:42:25.244Z,1.30
2023-02-06T19:44:54.803Z,1.30
2023-02-06T19:47:21.995Z,1.30
2023-02-06T19:49:52.913Z,1.30
2023-02-06T19:52:20.310Z,1.30
2023-02-06T19:54:47.929Z,1.30
2023-02-06T19:57:16.036Z,1.30
2023-02-06T19:59:43.166Z,1.20
2023-02-06T20:02:13.369Z,1.20
2023-02-06T20:04:40.421Z,1.10
2023-02-06T20:07:07.426Z,1.10
2023-02-06T20:09:34.392Z,1.10
2023-02-06T20:12:01.324Z,1.10
2023-02-06T20:14:28.257Z,1.10
2023-02-06T20:16:55.601Z,1.00
2023-02-06T20:19:26.904Z,1.00
2023-02-06T20:21:57.077Z,1.00
2023-02-06T20:24:27.858Z,1.00
2023-02-06T20:26:58.570Z,1.00
2023-02-06T20:29:31.989Z,1.10
2023-02-06T20:31:59.853Z,1.10
2023-02-06T20:34:27.559Z,1.00
2023-02-06T20:36:55.350Z,1.10
2023-02-06T20:39:22.413Z,1.00
2023-02-06T20:41:50.426Z,1.00
2023-02-06T20:44:18.521Z,1.00
2023-02-06T20:46:46.397Z,1.00
2023-02-06T20:49:22.597Z,1.00
2023-02-06T20:51:50.225Z,1.00
2023-02-06T20:54:19.245Z,1.00
2023-02-06T20:56:46.354Z,1.00
2023-02-06T20:59:15.175Z,1.00
2023-02-06T21:01:42.999Z,1.00
2023-02-06T21:04:12.268Z,1.00
2023-02-06T21:06:40.106Z,0.90
2023-02-06T21:09:08.443Z,0.90
2023-02-06T21:11:40.778Z,0.90
2023-02-06T21:14:08.404Z,0.90
2023-02-06T21:16:37.535Z,0.90
2023-02-06T21:19:06.703Z,0.90
2023-02-06T21:21:33.611Z,0.80
2023-02-06T21:24:00.638Z,0.70
2023-02-06T21:26:28.506Z,0.70
2023-02-06T21:28:55.495Z,0.80
2023-02-06T21:31:34.140Z,0.70
2023-02-06T21:34:07.258Z,0.70
2023-02-06T21:36:36.601Z,0.70
2023-02-06T21:39:04.071Z,0.70
2023-02-06T21:41:31.106Z,0.70
2023-02-06T21:43:58.519Z,0.70
2023-02-06T21:46:26.268Z,0.60
2023-02-06T21:48:54.866Z,0.60
2023-02-06T21:51:23.310Z,0.70
2023-02-06T21:53:50.277Z,0.60
2023-02-06T21:56:20.807Z,0.60
2023-02-06T21:58:48.780Z,0.60
2023-02-06T22:01:17.809Z,0.60
2023-02-06T22:03:45.838Z,0.50
2023-02-06T22:06:13.762Z,0.50
2023-02-06T22:08:48.104Z,0.50
2023-02-06T22:11:17.638Z,0.50
2023-02-06T22:13:45.770Z,0.40
2023-02-06T22:16:14.126Z,0.40
2023-02-06T22:18:41.442Z,0.40
2023-02-06T22:21:19.366Z,0.40
2023-02-06T22:23:47.608Z,0.40
2023-02-06T22:26:17.051Z,0.40
2023-02-06T22:28:44.739Z,0.30
2023-02-06T22:31:21.426Z,0.30
2023-02-06T22:33:49.362Z,0.30
2023-02-06T22:36:19.061Z,0.30
2023-02-06T22:38:47.137Z,0.20
2023-02-06T22:41:16.819Z,0.20
2023-02-06T22:43:45.692Z,0.20
2023-02-06T22:46:25.009Z,0.20
2023-02-06T22:48:52.077Z,0.20
2023-02-06T22:51:19.584Z,0.20
2023-02-06T22:53:46.905Z,0.30
2023-02-06T22:56:31.136Z,0.30
2023-02-06T22:59:27.197Z,0.40
2023-02-06T23:01:57.739Z,0.30
2023-02-06T23:04:30.278Z,0.40
2023-02-06T23:06:57.468Z,0.40
2023-02-06T23:09:27.092Z,0.40
2023-02-06T23:11:55.260Z,0.40
2023-02-06T23:14:22.069Z,0.40
2023-02-06T23:16:49.360Z,0.40
2023-02-06T23:19:31.427Z,0.40
2023-02-06T23:21:58.373Z,0.40
2023-02-06T23:24:25.326Z,0.40
2023-02-06T23:26:53.758Z,0.50
2023-02-06T23:29:21.947Z,0.50
2023-02-06T23:31:49.323Z,0.50
2023-02-06T23:34:17.753Z,0.50
2023-02-06T23:36:46.093Z,0.60
2023-02-06T23:39:13.165Z,0.60
2023-02-06T23:41:40.105Z,0.60
2023-02-06T23:44:08.254Z,0.60
2023-02-06T23:46:37.813Z,0.60
2023-02-06T23:49:06.496Z,0.50
2023-02-06T23:51:33.785Z,0.50
2023-02-06T23:54:00.565Z,0.50
2023-02-06T23:56:29.360Z,0.60
2023-02-06T23:58:57.393Z,0.60
